Time;durP1;ratioP1;P1;durP2;ratioP2;P2;SDS_P1;SDS_P2;PMS_P1;PMS_P2;Temp;Humidity;BMP_temperature;BMP_pressure;BME280_temperature;BME280_humidity;BME280_pressure;Samples;Min_cycle;Max_cycle;Signal;HPM_P1;HPM_P2
2024/03/22 00:02:12;;;;;;;19.15;4.40;;;;;;;;;;5079391;28;20023;-73
2024/03/22 00:04:38;;;;;;;21.92;4.43;;;;;;;;;;5067696;28;20023;-73
2024/03/22 00:07:05;;;;;;;20.63;4.32;;;;;;;;;;5080870;28;20511;-73
2024/03/22 00:09:31;;;;;;;10.88;3.88;;;;;;;;;;5090017;28;20042;-72
2024/03/22 00:11:57;;;;;;;8.30;2.92;;;;;;;;;;5098390;28;20043;-72
2024/03/22 00:14:23;;;;;;;23.63;4.15;;;;;;;;;;5100661;27;20032;-73
2024/03/22 00:16:50;;;;;;;30.60;4.15;;;;;;;;;;5097301;27;22010;-72
2024/03/22 00:19:16;;;;;;;20.73;4.70;;;;;;;;;;5096542;27;20020;-73
2024/03/22 00:21:42;;;;;;;15.75;4.28;;;;;;;;;;5090103;28;20024;-73
2024/03/22 00:24:08;;;;;;;11.65;3.13;;;;;;;;;;5077501;28;20446;-73
2024/03/22 00:26:34;;;;;;;17.63;4.35;;;;;;;;;;5099538;27;20030;-73
2024/03/22 00:29:00;;;;;;;14.80;3.92;;;;;;;;;;5080625;28;20031;-73
2024/03/22 00:31:27;;;;;;;14.75;3.90;;;;;;;;;;5100153;27;20036;-73
2024/03/22 00:33:56;;;;;;;14.43;4.10;;;;;;;;;;5103875;27;20774;-73
2024/03/22 00:36:22;;;;;;;13.45;4.53;;;;;;;;;;5103502;28;20020;-73
2024/03/22 00:38:48;;;;;;;23.15;4.47;;;;;;;;;;5083154;28;20059;-73
2024/03/22 00:41:14;;;;;;;11.77;4.20;;;;;;;;;;5100585;28;20024;-72
2024/03/22 00:43:40;;;;;;;16.77;5.28;;;;;;;;;;5096541;27;20024;-72
2024/03/22 00:46:07;;;;;;;9.32;3.42;;;;;;;;;;5096887;27;20019;-73
2024/03/22 00:48:35;;;;;;;9.68;3.80;;;;;;;;;;5084122;28;20093;-73
2024/03/22 00:51:01;;;;;;;21.90;4.43;;;;;;;;;;5097747;27;20047;-72
2024/03/22 00:53:27;;;;;;;13.73;3.72;;;;;;;;;;5097732;28;20036;-72
2024/03/22 00:55:54;;;;;;;13.05;3.10;;;;;;;;;;5074346;28;20028;-72
2024/03/22 00:58:20;;;;;;;8.57;2.83;;;;;;;;;;5101400;27;20583;-72
2024/03/22 01:00:47;;;;;;;16.27;3.50;;;;;;;;;;5097440;28;20019;-72
2024/03/22 01:03:13;;;;;;;21.02;4.32;;;;;;;;;;5095445;28;20020;-72
2024/03/22 01:05:40;;;;;;;16.63;6.13;;;;;;;;;;5092249;27;20806;-72
2024/03/22 01:08:06;;;;;;;27.73;5.05;;;;;;;;;;5094865;28;20027;-72
2024/03/22 01:10:33;;;;;;;16.05;4.40;;;;;;;;;;5100528;28;20051;-72
2024/03/22 01:13:00;;;;;;;12.70;3.70;;;;;;;;;;5082226;28;20557;-73
2024/03/22 01:15:26;;;;;;;15.40;4.63;;;;;;;;;;5095902;27;20068;-73
2024/03/22 01:17:53;;;;;;;21.02;4.13;;;;;;;;;;5087756;28;20389;-73
2024/03/22 01:20:19;;;;;;;23.15;4.90;;;;;;;;;;5083696;28;20041;-72
2024/03/22 01:22:45;;;;;;;12.23;4.47;;;;;;;;;;5094306;28;20161;-72
2024/03/22 01:25:11;;;;;;;16.40;4.28;;;;;;;;;;5101216;27;20028;-73
2024/03/22 01:27:38;;;;;;;12.00;4.18;;;;;;;;;;5083303;28;20035;-73
2024/03/22 01:30:04;;;;;;;6.47;2.45;;;;;;;;;;5094564;28;20533;-73
2024/03/22 01:32:31;;;;;;;12.85;3.40;;;;;;;;;;5096802;28;20020;-72
2024/03/22 01:34:57;;;;;;;6.20;3.30;;;;;;;;;;5107298;27;20020;-72
2024/03/22 01:37:24;;;;;;;15.57;3.75;;;;;;;;;;5092459;28;20760;-73
2024/03/22 01:39:50;;;;;;;14.07;3.78;;;;;;;;;;5080220;27;20423;-72
2024/03/22 01:42:16;;;;;;;12.75;3.95;;;;;;;;;;5090281;28;20043;-72
2024/03/22 01:44:42;;;;;;;8.13;3.10;;;;;;;;;;5075345;28;20393;-74
2024/03/22 01:47:08;;;;;;;19.42;4.03;;;;;;;;;;5082127;28;20038;-72
2024/03/22 01:49:35;;;;;;;24.67;4.85;;;;;;;;;;5100157;28;20254;-72
2024/03/22 01:52:01;;;;;;;7.93;3.15;;;;;;;;;;5092925;28;20028;-72
2024/03/22 01:54:27;;;;;;;29.75;3.63;;;;;;;;;;5095050;28;20061;-72
2024/03/22 01:56:54;;;;;;;18.73;4.53;;;;;;;;;;5099012;27;20116;-72
2024/03/22 01:59:21;;;;;;;11.50;3.85;;;;;;;;;;5090472;28;20051;-73
2024/03/22 02:01:48;;;;;;;20.80;2.92;;;;;;;;;;5081637;28;20028;-72
2024/03/22 02:04:15;;;;;;;18.45;3.88;;;;;;;;;;5100466;28;20388;-72
2024/03/22 02:06:41;;;;;;;7.38;2.90;;;;;;;;;;5099030;27;20094;-72
2024/03/22 02:09:09;;;;;;;17.80;3.78;;;;;;;;;;5097710;28;20028;-72
2024/03/22 02:11:37;;;;;;;14.02;3.92;;;;;;;;;;5093485;28;20404;-72
2024/03/22 02:14:03;;;;;;;12.35;4.28;;;;;;;;;;5078982;28;20034;-73
2024/03/22 02:16:30;;;;;;;11.38;2.85;;;;;;;;;;5073938;28;20020;-72
2024/03/22 02:18:56;;;;;;;5.65;2.63;;;;;;;;;;5085557;28;20020;-72
2024/03/22 02:21:22;;;;;;;13.13;3.40;;;;;;;;;;5099391;28;20024;-72
2024/03/22 02:23:48;;;;;;;11.50;3.13;;;;;;;;;;5095734;28;20270;-72
2024/03/22 02:26:15;;;;;;;6.45;3.17;;;;;;;;;;5091925;28;20483;-72
2024/03/22 02:28:41;;;;;;;19.48;3.58;;;;;;;;;;5098979;28;20020;-72
2024/03/22 02:31:07;;;;;;;23.70;4.10;;;;;;;;;;5093092;28;20027;-72
2024/03/22 02:33:33;;;;;;;19.88;3.05;;;;;;;;;;5077803;28;20028;-72
2024/03/22 02:36:01;;;;;;;14.70;3.88;;;;;;;;;;5080869;28;20089;-72
2024/03/22 02:38:27;;;;;;;14.43;3.38;;;;;;;;;;5082369;28;20071;-71
2024/03/22 02:40:54;;;;;;;10.00;4.00;;;;;;;;;;5082409;28;20503;-72
2024/03/22 02:43:23;;;;;;;23.13;4.47;;;;;;;;;;5079638;28;20050;-72
2024/03/22 02:45:49;;;;;;;7.85;3.22;;;;;;;;;;5097590;28;20291;-72
2024/03/22 02:48:19;;;;;;;13.90;2.80;;;;;;;;;;5094217;28;20056;-72
2024/03/22 02:50:45;;;;;;;22.20;3.15;;;;;;;;;;5097030;27;20023;-72
2024/03/22 02:53:11;;;;;;;12.40;3.45;;;;;;;;;;5096011;28;20055;-72
2024/03/22 02:55:40;;;;;;;19.42;3.83;;;;;;;;;;5094643;28;20028;-72
2024/03/22 02:58:07;;;;;;;5.65;2.40;;;;;;;;;;5096523;28;20505;-72
2024/03/22 03:00:38;;;;;;;17.50;3.80;;;;;;;;;;5089739;28;20038;-73
2024/03/22 03:03:04;;;;;;;18.02;4.28;;;;;;;;;;5092535;28;20478;-72
2024/03/22 03:05:30;;;;;;;11.88;3.92;;;;;;;;;;5101149;28;20084;-73
2024/03/22 03:07:56;;;;;;;25.48;3.72;;;;;;;;;;5097385;28;20541;-72
2024/03/22 03:10:22;;;;;;;15.02;4.07;;;;;;;;;;5093903;28;20657;-73
2024/03/22 03:12:49;;;;;;;17.85;4.45;;;;;;;;;;5076867;28;20046;-72
2024/03/22 03:15:16;;;;;;;15.95;3.53;;;;;;;;;;5080588;28;20028;-72
2024/03/22 03:17:43;;;;;;;10.77;3.42;;;;;;;;;;5089523;28;20537;-72
2024/03/22 03:20:13;;;;;;;16.20;3.25;;;;;;;;;;5089719;28;20035;-72
2024/03/22 03:22:39;;;;;;;9.80;2.88;;;;;;;;;;5075358;28;20035;-72
2024/03/22 03:25:05;;;;;;;24.70;3.45;;;;;;;;;;5093853;28;20516;-72
2024/03/22 03:27:32;;;;;;;12.93;2.83;;;;;;;;;;5107076;28;20434;-73
2024/03/22 03:29:58;;;;;;;7.15;3.58;;;;;;;;;;5085269;28;20157;-72
2024/03/22 03:32:27;;;;;;;12.43;3.58;;;;;;;;;;5075676;28;20095;-72
2024/03/22 03:34:53;;;;;;;19.08;3.47;;;;;;;;;;5095533;28;20038;-72
2024/03/22 03:37:20;;;;;;;11.23;3.03;;;;;;;;;;5084512;28;20164;-72
2024/03/22 03:39:46;;;;;;;13.00;3.40;;;;;;;;;;5094145;28;20016;-73
2024/03/22 03:42:12;;;;;;;9.93;4.07;;;;;;;;;;5082790;28;20019;-72
2024/03/22 03:44:38;;;;;;;16.80;4.22;;;;;;;;;;5083729;28;20743;-73
2024/03/22 03:47:05;;;;;;;8.75;2.70;;;;;;;;;;5074109;28;20528;-72
2024/03/22 03:49:31;;;;;;;10.30;3.22;;;;;;;;;;5096215;28;20024;-72
2024/03/22 03:51:57;;;;;;;23.83;4.20;;;;;;;;;;5084971;28;20209;-72
2024/03/22 03:54:23;;;;;;;8.60;3.25;;;;;;;;;;5101740;28;20020;-72
2024/03/22 03:56:49;;;;;;;11.77;3.83;;;;;;;;;;5096838;28;20111;-72
2024/03/22 03:59:15;;;;;;;16.65;4.53;;;;;;;;;;5097339;28;20030;-72
2024/03/22 04:01:41;;;;;;;8.27;4.05;;;;;;;;;;5103165;27;20052;-72
2024/03/22 04:04:08;;;;;;;16.70;3.38;;;;;;;;;;5083877;28;20039;-72
2024/03/22 04:06:34;;;;;;;7.60;2.85;;;;;;;;;;5093904;28;20028;-72
2024/03/22 04:09:00;;;;;;;11.25;3.08;;;;;;;;;;5096287;27;20027;-72
2024/03/22 04:11:26;;;;;;;18.02;3.58;;;;;;;;;;5102385;27;20036;-72
2024/03/22 04:13:53;;;;;;;13.43;3.08;;;;;;;;;;5090819;27;20059;-72
2024/03/22 04:16:19;;;;;;;15.45;2.88;;;;;;;;;;5102974;27;20030;-72
2024/03/22 04:18:45;;;;;;;5.53;2.17;;;;;;;;;;5101368;28;20053;-72
2024/03/22 04:21:11;;;;;;;7.07;2.85;;;;;;;;;;5103435;28;20032;-72
2024/03/22 04:23:37;;;;;;;11.32;3.50;;;;;;;;;;5095737;28;20309;-72
2024/03/22 04:26:06;;;;;;;19.30;3.90;;;;;;;;;;5099059;28;20032;-72
2024/03/22 04:28:33;;;;;;;5.25;2.95;;;;;;;;;;5096958;28;20517;-72
2024/03/22 04:31:03;;;;;;;12.65;3.33;;;;;;;;;;5088669;28;20028;-72
2024/03/22 04:33:29;;;;;;;8.65;3.42;;;;;;;;;;5073715;28;20059;-72
2024/03/22 04:35:56;;;;;;;19.55;3.40;;;;;;;;;;5094733;28;20064;-72
2024/03/22 04:38:26;;;;;;;21.50;3.25;;;;;;;;;;5093780;28;20127;-72
2024/03/22 04:40:53;;;;;;;5.63;2.70;;;;;;;;;;5096230;28;20115;-72
2024/03/22 04:43:19;;;;;;;6.72;2.92;;;;;;;;;;5098105;28;20031;-72
2024/03/22 04:45:46;;;;;;;9.43;3.33;;;;;;;;;;5084671;28;20040;-72
2024/03/22 04:48:17;;;;;;;10.32;3.53;;;;;;;;;;5076653;28;20039;-73
2024/03/22 04:50:43;;;;;;;19.73;3.40;;;;;;;;;;5080269;28;20035;-72
2024/03/22 04:53:09;;;;;;;7.85;3.55;;;;;;;;;;5091083;28;21011;-72
2024/03/22 04:55:35;;;;;;;15.55;3.25;;;;;;;;;;5079925;28;20031;-72
2024/03/22 04:58:01;;;;;;;12.10;2.67;;;;;;;;;;5090351;28;20463;-72
2024/03/22 05:00:31;;;;;;;6.90;2.53;;;;;;;;;;5096474;27;20024;-72
2024/03/22 05:02:57;;;;;;;10.07;3.78;;;;;;;;;;5092823;28;20028;-72
2024/03/22 05:05:23;;;;;;;14.13;3.22;;;;;;;;;;5101702;27;20065;-72
2024/03/22 05:07:49;;;;;;;13.43;2.75;;;;;;;;;;5091403;28;20425;-72
2024/03/22 05:10:16;;;;;;;7.72;2.63;;;;;;;;;;5085563;28;20220;-72
2024/03/22 05:12:42;;;;;;;11.30;2.78;;;;;;;;;;5077464;28;20036;-72
2024/03/22 05:15:09;;;;;;;17.85;2.40;;;;;;;;;;5098859;28;20042;-72
2024/03/22 05:17:35;;;;;;;6.70;3.38;;;;;;;;;;5097214;28;20314;-72
2024/03/22 05:20:02;;;;;;;10.85;3.03;;;;;;;;;;5102893;28;20020;-72
2024/03/22 05:22:28;;;;;;;13.73;3.28;;;;;;;;;;5100115;28;20097;-72
2024/03/22 05:24:55;;;;;;;7.97;3.28;;;;;;;;;;5086834;28;20019;-71
2024/03/22 05:27:21;;;;;;;14.18;3.58;;;;;;;;;;5076601;28;20031;-72
2024/03/22 05:29:47;;;;;;;14.93;4.25;;;;;;;;;;5088957;28;20119;-72
2024/03/22 05:32:13;;;;;;;12.50;3.45;;;;;;;;;;5096543;28;20185;-72
2024/03/22 05:34:40;;;;;;;13.35;2.70;;;;;;;;;;5083177;28;20540;-72
2024/03/22 05:37:06;;;;;;;7.82;2.35;;;;;;;;;;5092751;27;20135;-72
2024/03/22 05:39:32;;;;;;;9.43;2.58;;;;;;;;;;5074021;28;20032;-73
2024/03/22 05:41:58;;;;;;;8.68;2.17;;;;;;;;;;5100220;27;20073;-72
2024/03/22 05:44:24;;;;;;;11.02;3.17;;;;;;;;;;5097205;28;20054;-72
2024/03/22 05:46:51;;;;;;;19.05;2.97;;;;;;;;;;5080379;28;20030;-72
2024/03/22 05:49:17;;;;;;;11.30;3.80;;;;;;;;;;5097882;28;20042;-72
2024/03/22 05:51:43;;;;;;;20.85;4.18;;;;;;;;;;5083386;28;20095;-72
2024/03/22 05:54:10;;;;;;;12.90;4.03;;;;;;;;;;5095869;28;20020;-72
2024/03/22 05:56:36;;;;;;;25.90;3.78;;;;;;;;;;5098245;27;20115;-72
2024/03/22 05:59:03;;;;;;;11.57;3.10;;;;;;;;;;5070979;28;20032;-72
2024/03/22 06:01:29;;;;;;;14.00;3.80;;;;;;;;;;5072227;28;20028;-72
2024/03/22 06:03:55;;;;;;;6.47;3.72;;;;;;;;;;5089780;28;20082;-72
2024/03/22 06:06:25;;;;;;;14.00;3.65;;;;;;;;;;5094683;27;20103;-72
2024/03/22 06:08:56;;;;;;;6.32;3.47;;;;;;;;;;5079489;28;20024;-72
2024/03/22 06:11:23;;;;;;;6.28;3.55;;;;;;;;;;5089242;28;20024;-72
2024/03/22 06:13:49;;;;;;;12.02;3.85;;;;;;;;;;5091287;28;20036;-72
2024/03/22 06:16:15;;;;;;;13.25;2.80;;;;;;;;;;5099414;27;20020;-72
2024/03/22 06:18:41;;;;;;;17.63;3.35;;;;;;;;;;5093772;28;20415;-73
2024/03/22 06:21:07;;;;;;;2.17;1.85;;;;;;;;;;5098274;28;20023;-71
2024/03/22 06:23:34;;;;;;;11.60;2.67;;;;;;;;;;5092364;27;20036;-72
2024/03/22 06:26:00;;;;;;;17.20;4.22;;;;;;;;;;5100271;28;20024;-72
2024/03/22 06:28:28;;;;;;;16.30;2.58;;;;;;;;;;5096949;28;20038;-72
2024/03/22 06:30:54;;;;;;;11.77;2.42;;;;;;;;;;5073510;28;20016;-72
2024/03/22 06:33:21;;;;;;;7.18;2.30;;;;;;;;;;5078413;28;20065;-72
2024/03/22 06:35:47;;;;;;;5.95;2.80;;;;;;;;;;5077637;28;20024;-72
2024/03/22 06:38:14;;;;;;;18.10;3.20;;;;;;;;;;5092496;27;20043;-72
2024/03/22 06:40:41;;;;;;;4.88;3.08;;;;;;;;;;5080003;28;20716;-71
2024/03/22 06:43:07;;;;;;;5.53;2.22;;;;;;;;;;5098987;28;20535;-72
2024/03/22 06:45:33;;;;;;;6.20;1.90;;;;;;;;;;5083089;28;20166;-72
2024/03/22 06:47:59;;;;;;;7.32;1.80;;;;;;;;;;5093295;28;20026;-72
2024/03/22 06:50:25;;;;;;;8.13;2.08;;;;;;;;;;5093968;28;20070;-72
2024/03/22 06:52:53;;;;;;;6.82;2.30;;;;;;;;;;5070769;28;20031;-72
2024/03/22 06:55:19;;;;;;;4.90;2.20;;;;;;;;;;5089855;28;20015;-72
2024/03/22 06:57:49;;;;;;;3.88;1.77;;;;;;;;;;5088075;28;20027;-71
2024/03/22 07:00:15;;;;;;;11.82;2.47;;;;;;;;;;5073484;28;20023;-72
2024/03/22 07:02:41;;;;;;;7.93;2.33;;;;;;;;;;5089361;28;20098;-72
2024/03/22 07:05:08;;;;;;;2.30;1.95;;;;;;;;;;5078760;28;20028;-73
2024/03/22 07:07:35;;;;;;;6.50;2.70;;;;;;;;;;5088974;28;20024;-73
2024/03/22 07:10:01;;;;;;;2.03;1.85;;;;;;;;;;5092897;28;20028;-73
2024/03/22 07:12:27;;;;;;;19.92;2.80;;;;;;;;;;5072329;28;20581;-72
2024/03/22 07:14:54;;;;;;;1.63;1.50;;;;;;;;;;5090388;28;20031;-72
2024/03/22 07:17:24;;;;;;;8.35;2.17;;;;;;;;;;5080195;28;20080;-72
2024/03/22 07:19:51;;;;;;;3.70;2.22;;;;;;;;;;5098534;28;20016;-72
2024/03/22 07:22:19;;;;;;;9.45;1.83;;;;;;;;;;5096014;28;20859;-72
2024/03/22 07:24:46;;;;;;;4.13;1.92;;;;;;;;;;5094509;28;20493;-72
2024/03/22 07:27:12;;;;;;;10.50;2.30;;;;;;;;;;5094625;28;21368;-72
2024/03/22 07:29:38;;;;;;;8.38;3.00;;;;;;;;;;5079185;28;20036;-72
2024/03/22 07:32:05;;;;;;;5.85;2.40;;;;;;;;;;5093994;28;20131;-72
2024/03/22 07:34:32;;;;;;;5.75;2.10;;;;;;;;;;5084092;28;20461;-72
2024/03/22 07:36:58;;;;;;;3.80;1.55;;;;;;;;;;5096008;28;20397;-73
2024/03/22 07:39:24;;;;;;;10.23;2.58;;;;;;;;;;5065939;28;20052;-72
2024/03/22 07:41:51;;;;;;;3.78;1.63;;;;;;;;;;5079576;28;20025;-72
2024/03/22 07:44:17;;;;;;;15.00;2.67;;;;;;;;;;5088503;28;20239;-72
2024/03/22 07:46:47;;;;;;;4.72;2.28;;;;;;;;;;5093515;28;20031;-72
2024/03/22 07:49:13;;;;;;;6.00;1.70;;;;;;;;;;5097094;28;20028;-72
2024/03/22 07:51:39;;;;;;;5.72;1.75;;;;;;;;;;5096376;28;20182;-72
2024/03/22 07:54:08;;;;;;;12.25;2.25;;;;;;;;;;5088781;28;20051;-72
2024/03/22 07:56:34;;;;;;;10.13;2.70;;;;;;;;;;5069980;28;20129;-71
2024/03/22 07:59:01;;;;;;;4.85;2.00;;;;;;;;;;5106908;28;20038;-78
2024/03/22 08:01:30;;;;;;;9.07;2.25;;;;;;;;;;5105342;28;20504;-75
2024/03/22 08:03:57;;;;;;;3.50;1.55;;;;;;;;;;5093719;28;20028;-73
2024/03/22 08:06:23;;;;;;;2.13;1.92;;;;;;;;;;5110725;28;20035;-77
2024/03/22 08:08:49;;;;;;;6.45;1.80;;;;;;;;;;5092854;28;20038;-74
2024/03/22 08:11:15;;;;;;;9.60;2.20;;;;;;;;;;5090961;28;20032;-76
2024/03/22 08:13:42;;;;;;;6.25;2.30;;;;;;;;;;5110649;28;20030;-74
2024/03/22 08:16:08;;;;;;;2.08;1.42;;;;;;;;;;5112693;28;20028;-72
2024/03/22 08:18:35;;;;;;;6.00;1.73;;;;;;;;;;5107025;28;20028;-73
2024/03/22 08:21:02;;;;;;;5.53;2.10;;;;;;;;;;5109326;28;20027;-77
2024/03/22 08:23:28;;;;;;;8.38;2.22;;;;;;;;;;5089269;28;20555;-73
2024/03/22 08:25:54;;;;;;;10.43;2.30;;;;;;;;;;5098525;28;20028;-73
2024/03/22 08:28:21;;;;;;;7.03;1.73;;;;;;;;;;5094986;28;20106;-74
2024/03/22 08:30:47;;;;;;;11.40;1.92;;;;;;;;;;5098142;28;20039;-73
2024/03/22 08:33:13;;;;;;;6.43;1.83;;;;;;;;;;5089426;28;20031;-74
2024/03/22 08:35:40;;;;;;;7.00;2.83;;;;;;;;;;5092155;28;20080;-73
2024/03/22 08:38:14;;;;;;;3.03;1.70;;;;;;;;;;5103287;28;20044;-74
2024/03/22 08:40:41;;;;;;;2.15;1.60;;;;;;;;;;5084224;28;20031;-75
2024/03/22 08:43:07;;;;;;;4.07;2.00;;;;;;;;;;5100748;28;20035;-73
2024/03/22 08:45:33;;;;;;;2.65;1.52;;;;;;;;;;5111300;27;20028;-74
2024/03/22 08:48:00;;;;;;;1.88;1.77;;;;;;;;;;5109177;28;20097;-72
2024/03/22 08:50:26;;;;;;;5.70;1.98;;;;;;;;;;5105568;28;20051;-71
2024/03/22 08:52:52;;;;;;;2.05;1.73;;;;;;;;;;5108537;27;20427;-69
2024/03/22 08:55:19;;;;;;;13.30;2.22;;;;;;;;;;5101742;27;20081;-72
2024/03/22 08:57:45;;;;;;;9.30;1.98;;;;;;;;;;5090210;28;20358;-72
2024/03/22 09:00:11;;;;;;;5.70;2.10;;;;;;;;;;5111425;27;20045;-73
2024/03/22 09:02:38;;;;;;;8.15;1.90;;;;;;;;;;5113260;27;20528;-73
2024/03/22 09:05:05;;;;;;;6.18;2.78;;;;;;;;;;5103226;27;20103;-72
2024/03/22 09:07:31;;;;;;;1.98;1.80;;;;;;;;;;5108348;28;20031;-73
2024/03/22 09:09:57;;;;;;;4.38;2.33;;;;;;;;;;5105570;27;20345;-72
2024/03/22 09:12:23;;;;;;;5.18;1.98;;;;;;;;;;5084974;28;20233;-72
2024/03/22 09:14:49;;;;;;;9.38;2.47;;;;;;;;;;5087197;27;20027;-72
2024/03/22 09:17:15;;;;;;;11.73;2.65;;;;;;;;;;5100090;28;20388;-72
2024/03/22 09:19:42;;;;;;;11.07;3.13;;;;;;;;;;5102710;27;20556;-71
2024/03/22 09:22:08;;;;;;;8.40;4.28;;;;;;;;;;5103747;28;20035;-72
2024/03/22 09:24:34;;;;;;;7.97;2.15;;;;;;;;;;5104640;27;20059;-72
2024/03/22 09:27:08;;;;;;;3.10;2.20;;;;;;;;;;5095290;27;20027;-72
2024/03/22 09:29:35;;;;;;;4.85;2.35;;;;;;;;;;5093146;27;20027;-70
2024/03/22 09:32:01;;;;;;;4.95;1.92;;;;;;;;;;5103239;27;20032;-69
2024/03/22 09:34:29;;;;;;;8.07;3.42;;;;;;;;;;5094721;28;20027;-73
2024/03/22 09:36:59;;;;;;;12.00;2.92;;;;;;;;;;5091675;28;20485;-73
2024/03/22 09:39:26;;;;;;;7.45;2.13;;;;;;;;;;5086276;28;20470;-74
2024/03/22 09:41:53;;;;;;;5.22;2.20;;;;;;;;;;5086144;28;20034;-69
2024/03/22 09:44:19;;;;;;;8.90;2.60;;;;;;;;;;5085915;28;20020;-71
2024/03/22 09:46:48;;;;;;;6.05;1.92;;;;;;;;;;5104565;27;20047;-74
2024/03/22 09:49:14;;;;;;;5.45;2.38;;;;;;;;;;5105495;28;20555;-71
2024/03/22 09:51:42;;;;;;;6.13;2.17;;;;;;;;;;5109256;27;20502;-73
2024/03/22 09:54:09;;;;;;;1.98;1.88;;;;;;;;;;5101942;28;20027;-72
2024/03/22 09:56:36;;;;;;;5.43;1.92;;;;;;;;;;5110058;27;20392;-71
2024/03/22 09:59:03;;;;;;;4.53;1.88;;;;;;;;;;5090092;28;20027;-73
2024/03/22 10:01:30;;;;;;;5.10;2.83;;;;;;;;;;5106616;28;20024;-75
2024/03/22 10:03:56;;;;;;;4.00;1.92;;;;;;;;;;5090309;28;20031;-69
2024/03/22 10:06:23;;;;;;;16.95;3.00;;;;;;;;;;5105812;28;20185;-69
2024/03/22 10:08:49;;;;;;;6.57;3.10;;;;;;;;;;5113712;28;20042;-73
2024/03/22 10:11:15;;;;;;;4.80;1.90;;;;;;;;;;5114733;27;20035;-73
2024/03/22 10:13:42;;;;;;;5.82;2.20;;;;;;;;;;5093411;28;20030;-73
2024/03/22 10:16:08;;;;;;;9.90;2.65;;;;;;;;;;5106837;28;20019;-70
2024/03/22 10:18:35;;;;;;;4.50;2.55;;;;;;;;;;5104957;28;20568;-73
2024/03/22 10:21:05;;;;;;;7.50;2.22;;;;;;;;;;5107960;28;20024;-74
2024/03/22 10:23:34;;;;;;;4.32;2.13;;;;;;;;;;5108939;28;20066;-73
2024/03/22 10:26:00;;;;;;;8.75;2.08;;;;;;;;;;5089409;28;20439;-73
2024/03/22 10:28:27;;;;;;;3.17;2.58;;;;;;;;;;5086451;27;20043;-71
2024/03/22 10:30:53;;;;;;;7.18;2.78;;;;;;;;;;5098386;28;20050;-73
2024/03/22 10:33:22;;;;;;;6.53;2.15;;;;;;;;;;5103343;27;20031;-71
2024/03/22 10:35:50;;;;;;;8.27;2.25;;;;;;;;;;5083945;28;20142;-72
2024/03/22 10:38:17;;;;;;;8.00;2.15;;;;;;;;;;5103214;28;20032;-73
2024/03/22 10:40:48;;;;;;;7.18;2.67;;;;;;;;;;5085412;28;20148;-73
2024/03/22 10:43:14;;;;;;;4.00;2.15;;;;;;;;;;5085426;28;20063;-72
2024/03/22 10:45:41;;;;;;;3.47;2.45;;;;;;;;;;5099554;27;20191;-73
2024/03/22 10:48:11;;;;;;;4.43;1.98;;;;;;;;;;5101330;28;20035;-70
2024/03/22 10:50:44;;;;;;;6.25;1.95;;;;;;;;;;5104756;28;20042;-71
2024/03/22 10:53:19;;;;;;;5.43;2.40;;;;;;;;;;5092416;28;20024;-73
2024/03/22 10:55:47;;;;;;;6.72;1.92;;;;;;;;;;5111817;28;20012;-74
2024/03/22 10:58:22;;;;;;;12.65;2.90;;;;;;;;;;5090036;28;20043;-73
2024/03/22 11:00:52;;;;;;;4.50;2.08;;;;;;;;;;5113013;27;20473;-76
2024/03/22 11:03:23;;;;;;;10.27;2.42;;;;;;;;;;5093635;28;20031;-74
2024/03/22 11:05:51;;;;;;;3.60;1.85;;;;;;;;;;5107210;28;20023;-73
2024/03/22 11:08:25;;;;;;;10.25;2.78;;;;;;;;;;5112001;28;20028;-73
2024/03/22 11:10:51;;;;;;;6.85;2.60;;;;;;;;;;5111309;27;20031;-75
2024/03/22 11:13:17;;;;;;;4.43;2.15;;;;;;;;;;5089685;28;20066;-74
2024/03/22 11:15:46;;;;;;;5.28;2.60;;;;;;;;;;5108648;28;20031;-73
2024/03/22 11:18:12;;;;;;;6.75;1.60;;;;;;;;;;5087609;28;20622;-73
2024/03/22 11:20:38;;;;;;;5.03;2.33;;;;;;;;;;5104675;28;20136;-73
2024/03/22 11:23:05;;;;;;;3.95;1.88;;;;;;;;;;5104203;28;20477;-74
2024/03/22 11:25:34;;;;;;;8.38;2.45;;;;;;;;;;5101151;28;20708;-72
2024/03/22 11:28:03;;;;;;;9.30;2.83;;;;;;;;;;5077217;28;20314;-76
2024/03/22 11:30:33;;;;;;;5.43;2.38;;;;;;;;;;5098785;28;20500;-72
2024/03/22 11:33:03;;;;;;;10.27;2.45;;;;;;;;;;5096954;28;20027;-74
2024/03/22 11:35:29;;;;;;;3.60;2.03;;;;;;;;;;5101683;28;20020;-79
2024/03/22 11:37:58;;;;;;;5.07;1.83;;;;;;;;;;5082897;28;20067;-80
2024/03/22 11:40:24;;;;;;;5.97;2.42;;;;;;;;;;5105586;28;20019;-81
2024/03/22 11:42:55;;;;;;;7.32;2.15;;;;;;;;;;5084226;28;20035;-77
2024/03/22 11:45:21;;;;;;;6.90;2.08;;;;;;;;;;5103460;28;20032;-78
2024/03/22 11:47:48;;;;;;;6.80;1.92;;;;;;;;;;5104968;28;20027;-79
2024/03/22 11:50:15;;;;;;;6.70;2.15;;;;;;;;;;5086573;28;20061;-77
2024/03/22 11:52:46;;;;;;;3.35;2.13;;;;;;;;;;5095524;28;20114;-73
2024/03/22 11:55:13;;;;;;;7.70;2.13;;;;;;;;;;5080440;28;20505;-73
2024/03/22 11:57:39;;;;;;;5.53;2.80;;;;;;;;;;5106378;28;20031;-76
2024/03/22 12:00:09;;;;;;;8.82;2.85;;;;;;;;;;5090893;28;20036;-76
2024/03/22 12:02:38;;;;;;;5.25;2.28;;;;;;;;;;5106513;28;20031;-74
2024/03/22 12:05:05;;;;;;;6.80;2.28;;;;;;;;;;5109035;28;20505;-81
2024/03/22 12:07:32;;;;;;;4.70;2.10;;;;;;;;;;5104031;28;20068;-79
2024/03/22 12:09:59;;;;;;;2.67;2.35;;;;;;;;;;5090439;28;20035;-79
2024/03/22 12:12:25;;;;;;;5.03;1.67;;;;;;;;;;5088574;28;20039;-80
2024/03/22 12:14:52;;;;;;;2.17;1.90;;;;;;;;;;5105841;27;20122;-77
2024/03/22 12:17:18;;;;;;;4.28;2.38;;;;;;;;;;5108379;27;20025;-78
2024/03/22 12:19:45;;;;;;;4.50;1.90;;;;;;;;;;5117948;27;20020;-73
2024/03/22 12:22:14;;;;;;;7.32;2.72;;;;;;;;;;5110515;28;20093;-74
2024/03/22 12:24:40;;;;;;;6.22;2.58;;;;;;;;;;5092163;28;20055;-77
2024/03/22 12:27:06;;;;;;;4.38;2.35;;;;;;;;;;5085341;28;20027;-76
2024/03/22 12:29:33;;;;;;;2.78;2.45;;;;;;;;;;5087217;28;20397;-77
2024/03/22 12:32:06;;;;;;;4.07;2.10;;;;;;;;;;5094052;28;20834;-78
2024/03/22 12:34:33;;;;;;;6.10;2.50;;;;;;;;;;5112385;27;20092;-78
2024/03/22 12:37:03;;;;;;;4.90;2.20;;;;;;;;;;5111040;28;20140;-78
2024/03/22 12:39:29;;;;;;;4.68;1.33;;;;;;;;;;5113648;27;20032;-77
2024/03/22 12:41:56;;;;;;;2.03;1.90;;;;;;;;;;5113765;27;20045;-72
2024/03/22 12:44:22;;;;;;;4.60;1.90;;;;;;;;;;5107003;28;20504;-71
2024/03/22 12:46:51;;;;;;;2.33;1.98;;;;;;;;;;5085862;28;20024;-71
2024/03/22 12:49:17;;;;;;;3.30;1.90;;;;;;;;;;5105491;27;20012;-71
2024/03/22 12:51:44;;;;;;;4.93;1.90;;;;;;;;;;5108187;27;20171;-73
2024/03/22 12:54:10;;;;;;;4.05;1.92;;;;;;;;;;5107682;27;20029;-75
2024/03/22 12:56:39;;;;;;;2.92;1.70;;;;;;;;;;5081354;28;20024;-74
2024/03/22 12:59:05;;;;;;;4.00;1.80;;;;;;;;;;5109589;28;20024;-76
2024/03/22 13:01:32;;;;;;;2.05;1.90;;;;;;;;;;5090934;28;20031;-74
2024/03/22 13:03:58;;;;;;;5.93;2.30;;;;;;;;;;5084857;28;20031;-77
2024/03/22 13:06:25;;;;;;;3.17;1.70;;;;;;;;;;5083076;28;20027;-76
2024/03/22 13:08:51;;;;;;;2.88;2.35;;;;;;;;;;5085164;28;20449;-76
2024/03/22 13:11:17;;;;;;;5.10;1.92;;;;;;;;;;5104257;27;20023;-78
2024/03/22 13:13:43;;;;;;;4.10;2.33;;;;;;;;;;5101801;28;20031;-76
2024/03/22 13:16:14;;;;;;;2.67;2.13;;;;;;;;;;5086056;28;20055;-77
2024/03/22 13:18:40;;;;;;;5.10;2.78;;;;;;;;;;5088619;28;20032;-76
2024/03/22 13:21:07;;;;;;;4.55;2.20;;;;;;;;;;5105981;28;20102;-76
2024/03/22 13:23:33;;;;;;;5.50;2.03;;;;;;;;;;5084378;28;20714;-76
2024/03/22 13:26:03;;;;;;;2.88;1.80;;;;;;;;;;5098553;27;20072;-76
2024/03/22 13:28:32;;;;;;;4.22;1.90;;;;;;;;;;5104797;28;20633;-77
2024/03/22 13:31:06;;;;;;;6.43;2.00;;;;;;;;;;5086096;28;20036;-77
2024/03/22 13:33:32;;;;;;;5.35;2.10;;;;;;;;;;5104007;28;20058;-77
2024/03/22 13:35:58;;;;;;;3.35;2.10;;;;;;;;;;5104126;27;20036;-76
2024/03/22 13:38:25;;;;;;;3.67;1.77;;;;;;;;;;5082486;28;20069;-76
2024/03/22 13:40:55;;;;;;;3.53;1.60;;;;;;;;;;5104162;27;20024;-76
2024/03/22 13:43:21;;;;;;;4.25;1.92;;;;;;;;;;5098414;28;20370;-74
2024/03/22 13:45:49;;;;;;;3.00;1.83;;;;;;;;;;5103273;27;20165;-76
2024/03/22 13:48:16;;;;;;;2.40;1.65;;;;;;;;;;5101739;28;20260;-76
2024/03/22 13:50:42;;;;;;;3.17;2.20;;;;;;;;;;5098912;27;20030;-75
2024/03/22 13:53:08;;;;;;;2.05;1.80;;;;;;;;;;5070453;28;20123;-75
2024/03/22 13:55:34;;;;;;;4.10;2.13;;;;;;;;;;5087092;28;20032;-75
2024/03/22 13:58:01;;;;;;;4.43;2.13;;;;;;;;;;5084054;28;20035;-77
2024/03/22 14:00:27;;;;;;;5.82;2.42;;;;;;;;;;5085077;28;20032;-73
2024/03/22 14:02:55;;;;;;;3.70;2.33;;;;;;;;;;5085426;28;20032;-74
2024/03/22 14:05:24;;;;;;;6.47;2.20;;;;;;;;;;5105074;27;20034;-73
2024/03/22 14:07:50;;;;;;;4.43;2.00;;;;;;;;;;5107791;28;20043;-77
2024/03/22 14:10:16;;;;;;;3.80;2.13;;;;;;;;;;5090449;28;20540;-79
2024/03/22 14:12:43;;;;;;;4.15;1.42;;;;;;;;;;5081005;28;20027;-77
2024/03/22 14:15:09;;;;;;;4.03;2.13;;;;;;;;;;5090365;28;20028;-71
2024/03/22 14:17:36;;;;;;;4.95;2.20;;;;;;;;;;5101544;28;20472;-73
2024/03/22 14:20:08;;;;;;;2.20;1.90;;;;;;;;;;5099700;27;20031;-74
2024/03/22 14:22:35;;;;;;;5.28;2.22;;;;;;;;;;5108042;28;20152;-72
2024/03/22 14:25:02;;;;;;;2.80;1.90;;;;;;;;;;5111421;27;20343;-70
2024/03/22 14:27:29;;;;;;;1.73;1.50;;;;;;;;;;5086854;28;20020;-72
2024/03/22 14:29:55;;;;;;;2.90;2.10;;;;;;;;;;5084307;28;20024;-74
2024/03/22 14:32:21;;;;;;;1.80;1.70;;;;;;;;;;5100372;27;20020;-72
2024/03/22 14:34:48;;;;;;;3.28;2.17;;;;;;;;;;5101812;28;20035;-77
2024/03/22 14:37:14;;;;;;;2.20;1.52;;;;;;;;;;5106859;27;20038;-72